Time;durP1;ratioP1;P1;durP2;ratioP2;P2;SDS_P1;SDS_P2;PMS_P1;PMS_P2;Temp;Humidity;BMP_temperature;BMP_pressure;BME280_temperature;BME280_humidity;BME280_pressure;Samples;Min_cycle;Max_cycle;Signal;HPM_P1;HPM_P2
2021/01/28 00:00:32;;;;;;;4.60;3.85;;;2.10;99.90;;;;;;5093838;28;20102;-64
2021/01/28 00:02:59;;;;;;;5.97;4.30;;;2.10;99.90;;;;;;5093345;28;20032;-64
2021/01/28 00:05:28;;;;;;;4.82;3.92;;;2.20;99.90;;;;;;5093154;28;20040;-64
2021/01/28 00:07:54;;;;;;;5.90;4.57;;;2.20;99.90;;;;;;5093204;28;20051;-64
2021/01/28 00:10:20;;;;;;;4.85;3.80;;;2.20;99.90;;;;;;5094207;28;20774;-64
2021/01/28 00:12:46;;;;;;;6.32;4.45;;;2.20;99.90;;;;;;5093712;28;20024;-64
2021/01/28 00:15:15;;;;;;;6.85;4.68;;;2.20;99.90;;;;;;5092904;28;20032;-64
2021/01/28 00:17:40;;;;;;;7.47;4.93;;;2.20;99.90;;;;;;5094102;28;20039;-63
2021/01/28 00:20:18;;;;;;;7.53;4.78;;;2.20;99.90;;;;;;5092496;28;20427;-64
2021/01/28 00:22:44;;;;;;;7.55;5.43;;;2.20;99.90;;;;;;5101007;28;20024;-64
2021/01/28 00:25:16;;;;;;;8.38;5.32;;;2.20;99.90;;;;;;5091976;28;20167;-64
2021/01/28 00:27:43;;;;;;;5.88;4.63;;;2.20;99.90;;;;;;5094126;28;20115;-64
2021/01/28 00:30:21;;;;;;;6.22;4.68;;;2.20;99.90;;;;;;5092215;28;20133;-63
2021/01/28 00:32:48;;;;;;;7.38;4.55;;;2.20;99.90;;;;;;5093978;28;20442;-63
2021/01/28 00:35:17;;;;;;;5.88;4.38;;;2.20;99.90;;;;;;5093667;28;20050;-63
2021/01/28 00:37:42;;;;;;;5.65;4.25;;;2.30;99.90;;;;;;5091913;28;20036;-64
2021/01/28 00:40:08;;;;;;;6.60;4.72;;;2.30;99.90;;;;;;5092315;28;20570;-64
2021/01/28 00:42:34;;;;;;;5.15;4.13;;;2.30;99.90;;;;;;5092914;28;20020;-63
2021/01/28 00:45:00;;;;;;;6.57;4.63;;;2.30;99.90;;;;;;5091932;28;20031;-64
2021/01/28 00:47:27;;;;;;;6.22;4.45;;;2.30;99.90;;;;;;5092815;28;20106;-65
2021/01/28 00:49:53;;;;;;;5.78;4.18;;;2.30;99.90;;;;;;5092646;28;20024;-64
2021/01/28 00:52:19;;;;;;;5.38;4.30;;;2.30;99.90;;;;;;5092561;28;20028;-64
2021/01/28 00:54:44;;;;;;;5.00;3.75;;;2.30;99.90;;;;;;5092367;28;20024;-65
2021/01/28 00:57:10;;;;;;;5.30;4.13;;;2.30;99.90;;;;;;5092203;28;20529;-64
2021/01/28 00:59:35;;;;;;;5.68;3.75;;;2.30;99.90;;;;;;5089856;28;20024;-64
2021/01/28 01:02:01;;;;;;;5.07;3.92;;;2.30;99.90;;;;;;5088572;28;20032;-65
2021/01/28 01:04:27;;;;;;;4.75;3.58;;;2.30;99.90;;;;;;5089797;28;20035;-65
2021/01/28 01:06:56;;;;;;;5.78;3.67;;;2.30;99.90;;;;;;5089445;28;20046;-65
2021/01/28 01:09:26;;;;;;;5.47;4.53;;;2.30;99.90;;;;;;5092068;28;20068;-64
2021/01/28 01:11:54;;;;;;;4.72;3.70;;;2.30;99.90;;;;;;5092494;28;20126;-66
2021/01/28 01:14:20;;;;;;;6.45;4.50;;;2.30;99.90;;;;;;5092199;28;20043;-64
2021/01/28 01:16:47;;;;;;;6.68;4.70;;;2.30;99.90;;;;;;5090790;28;20064;-63
2021/01/28 01:19:14;;;;;;;6.18;4.45;;;2.40;99.90;;;;;;5088917;28;20032;-65
2021/01/28 01:21:39;;;;;;;5.53;4.22;;;2.50;99.90;;;;;;5088999;28;20105;-65
2021/01/28 01:24:06;;;;;;;5.07;3.42;;;2.60;99.90;;;;;;5091078;28;20054;-64
2021/01/28 01:26:32;;;;;;;4.97;3.53;;;2.60;99.90;;;;;;5093833;28;20023;-64
2021/01/28 01:28:57;;;;;;;5.15;3.40;;;2.70;99.90;;;;;;5089981;28;20431;-64
2021/01/28 01:31:23;;;;;;;5.72;4.10;;;2.70;99.90;;;;;;5091615;28;20127;-65
2021/01/28 01:33:49;;;;;;;4.68;3.40;;;2.70;99.90;;;;;;5090926;28;20102;-65
2021/01/28 01:36:15;;;;;;;5.75;4.07;;;2.70;99.90;;;;;;5090839;28;20113;-64
2021/01/28 01:38:40;;;;;;;6.47;4.50;;;2.80;99.90;;;;;;5090797;28;20090;-64
2021/01/28 01:41:06;;;;;;;4.90;3.45;;;2.80;99.90;;;;;;5090796;28;20039;-64
2021/01/28 01:43:31;;;;;;;4.63;3.30;;;2.90;99.90;;;;;;5092057;28;20028;-64
2021/01/28 01:46:10;;;;;;;4.22;3.08;;;2.90;99.90;;;;;;5091486;28;20115;-64
2021/01/28 01:48:42;;;;;;;3.75;2.88;;;2.90;99.90;;;;;;5092072;28;20526;-64
2021/01/28 01:51:30;;;;;;;3.95;3.08;;;2.90;99.90;;;;;;5091708;28;20021;-64
2021/01/28 01:54:08;;;;;;;3.08;2.72;;;3.00;99.90;;;;;;5090615;28;20024;-64
2021/01/28 01:56:41;;;;;;;4.55;3.30;;;3.00;99.90;;;;;;5092132;28;20074;-64
2021/01/28 01:59:17;;;;;;;6.00;3.15;;;3.00;99.90;;;;;;5083858;28;20407;-64
2021/01/28 02:01:54;;;;;;;6.40;3.20;;;3.10;99.90;;;;;;5091199;28;20107;-66
2021/01/28 02:04:21;;;;;;;3.90;2.67;;;3.10;99.90;;;;;;5090486;28;20479;-65
2021/01/28 02:06:53;;;;;;;3.80;3.20;;;3.10;99.90;;;;;;5092181;28;20525;-65
2021/01/28 02:09:19;;;;;;;3.67;2.50;;;3.20;99.90;;;;;;5092264;28;20032;-63
2021/01/28 02:11:47;;;;;;;8.88;3.13;;;3.20;99.90;;;;;;5092062;28;20024;-63
2021/01/28 02:14:15;;;;;;;4.30;2.60;;;3.30;99.90;;;;;;5090975;28;20036;-62
2021/01/28 02:16:54;;;;;;;3.75;2.50;;;3.30;99.90;;;;;;5091789;28;20042;-62
2021/01/28 02:19:54;;;;;;;2.92;2.35;;;3.30;99.90;;;;;;5092030;28;20108;-67
2021/01/28 02:22:24;;;;;;;;;;;3.40;99.90;;;;;;5091924;28;20043;-62
2021/01/28 02:25:12;;;;;;;2.85;2.30;;;3.40;99.90;;;;;;5091673;28;19912;-64
2021/01/28 02:27:42;;;;;;;3.28;2.38;;;3.40;99.90;;;;;;5084910;28;20039;-62
2021/01/28 02:30:08;;;;;;;3.47;2.38;;;3.40;99.90;;;;;;5090937;28;20077;-63
2021/01/28 02:32:33;;;;;;;3.88;2.63;;;3.30;99.90;;;;;;5091306;28;20038;-63
2021/01/28 02:34:59;;;;;;;2.70;2.05;;;3.30;99.90;;;;;;5090736;28;20460;-63
2021/01/28 02:37:25;;;;;;;3.45;2.45;;;3.30;99.90;;;;;;5090730;28;20101;-62
2021/01/28 02:39:50;;;;;;;3.85;1.98;;;3.40;99.90;;;;;;5091042;28;20035;-65
2021/01/28 02:42:30;;;;;;;3.13;2.22;;;3.40;99.90;;;;;;5090946;28;20025;-63
2021/01/28 02:44:56;;;;;;;3.33;2.00;;;3.40;99.90;;;;;;5090711;28;20052;-63
2021/01/28 02:47:22;;;;;;;3.45;2.25;;;3.50;99.90;;;;;;5091573;28;20108;-62
2021/01/28 02:49:50;;;;;;;2.03;1.77;;;3.50;99.90;;;;;;5090888;28;20476;-62
2021/01/28 02:52:16;;;;;;;3.78;2.00;;;3.50;99.90;;;;;;5090616;28;20024;-62
2021/01/28 02:54:47;;;;;;;2.55;1.60;;;3.50;99.90;;;;;;5090429;28;20028;-63
2021/01/28 02:57:13;;;;;;;2.30;1.92;;;3.50;99.90;;;;;;5083725;28;20028;-63
2021/01/28 02:59:40;;;;;;;1.77;1.52;;;3.50;99.90;;;;;;5090075;28;20032;-62
2021/01/28 03:02:11;;;;;;;3.47;1.70;;;3.50;99.90;;;;;;5090081;28;20134;-62
2021/01/28 03:04:37;;;;;;;2.20;1.75;;;3.50;99.90;;;;;;5090734;28;20435;-62
2021/01/28 03:07:04;;;;;;;1.83;1.50;;;3.50;99.90;;;;;;5090173;28;20481;-62
2021/01/28 03:09:30;;;;;;;2.25;1.60;;;3.50;99.90;;;;;;5090587;28;20476;-62
2021/01/28 03:11:56;;;;;;;2.58;2.00;;;3.50;99.90;;;;;;5090138;28;20025;-63
2021/01/28 03:14:22;;;;;;;3.03;2.00;;;3.50;99.90;;;;;;5090937;28;20039;-62
2021/01/28 03:16:48;;;;;;;1.77;1.65;;;3.60;99.90;;;;;;5090860;28;20040;-62
2021/01/28 03:19:14;;;;;;;2.03;1.48;;;3.60;99.90;;;;;;5090170;28;20035;-62
2021/01/28 03:21:39;;;;;;;2.28;1.80;;;3.60;99.90;;;;;;5089559;28;20028;-62
2021/01/28 03:24:06;;;;;;;2.95;1.67;;;3.70;99.90;;;;;;5090217;28;20024;-62
2021/01/28 03:26:32;;;;;;;2.10;1.60;;;3.70;99.90;;;;;;5090341;28;20472;-63
2021/01/28 03:28:57;;;;;;;1.58;1.42;;;3.70;99.90;;;;;;5090164;28;20028;-63
2021/01/28 03:31:24;;;;;;;2.03;1.70;;;3.70;99.90;;;;;;5089944;28;20085;-62
2021/01/28 03:33:49;;;;;;;2.20;1.65;;;3.80;99.90;;;;;;5095596;28;20024;-62
2021/01/28 03:36:15;;;;;;;3.55;1.95;;;3.80;99.90;;;;;;5089202;28;20040;-62
2021/01/28 03:38:41;;;;;;;2.67;2.10;;;3.80;99.90;;;;;;5090345;28;20433;-63
2021/01/28 03:41:06;;;;;;;1.70;1.48;;;3.80;99.90;;;;;;5088377;28;20036;-63
2021/01/28 03:43:32;;;;;;;2.15;1.95;;;3.80;99.90;;;;;;5094236;28;20067;-63
2021/01/28 03:45:58;;;;;;;3.25;2.47;;;3.90;99.90;;;;;;5092981;28;20040;-62
2021/01/28 03:48:24;;;;;;;2.70;2.10;;;3.80;99.90;;;;;;5093660;28;20126;-63
2021/01/28 03:50:49;;;;;;;3.65;2.30;;;3.90;99.90;;;;;;5093715;28;20023;-62
2021/01/28 03:53:15;;;;;;;2.55;2.00;;;3.90;99.90;;;;;;5092734;28;20100;-62
2021/01/28 03:55:41;;;;;;;3.25;2.20;;;3.90;99.90;;;;;;5093562;28;20109;-62
2021/01/28 03:58:06;;;;;;;1.98;1.60;;;3.90;99.90;;;;;;5092776;28;20469;-62
2021/01/28 04:00:34;;;;;;;2.28;1.77;;;3.80;99.90;;;;;;5093104;28;20031;-64
2021/01/28 04:03:02;;;;;;;2.22;1.60;;;3.80;99.90;;;;;;5093323;28;20032;-62
2021/01/28 04:05:28;;;;;;;2.33;1.65;;;3.90;99.90;;;;;;5093776;28;20073;-63
2021/01/28 04:07:54;;;;;;;2.40;1.75;;;3.90;99.90;;;;;;5092582;28;20052;-64
2021/01/28 04:10:25;;;;;;;1.50;1.30;;;3.90;99.90;;;;;;5093412;28;20024;-62
2021/01/28 04:12:50;;;;;;;3.47;1.77;;;3.90;99.90;;;;;;5092443;28;20435;-63
2021/01/28 04:15:16;;;;;;;3.13;1.80;;;3.90;99.90;;;;;;5093182;28;20063;-62
2021/01/28 04:17:43;;;;;;;3.88;2.35;;;3.80;99.90;;;;;;5093718;28;20114;-63
2021/01/28 04:20:09;;;;;;;3.72;2.45;;;3.80;99.90;;;;;;5092127;28;20119;-62
2021/01/28 04:22:35;;;;;;;2.83;1.98;;;3.80;99.90;;;;;;5092780;28;20031;-62
2021/01/28 04:25:02;;;;;;;3.70;2.40;;;3.70;99.90;;;;;;5092514;28;20024;-62
2021/01/28 04:27:28;;;;;;;3.97;2.58;;;3.70;99.90;;;;;;5093283;28;20036;-62
2021/01/28 04:29:53;;;;;;;3.45;2.67;;;3.70;99.90;;;;;;5093475;28;20032;-63
2021/01/28 04:32:19;;;;;;;3.78;2.70;;;3.70;99.90;;;;;;5092987;28;20039;-62
2021/01/28 04:34:45;;;;;;;5.15;3.10;;;3.70;99.90;;;;;;5093102;28;20040;-63
2021/01/28 04:37:10;;;;;;;4.78;3.10;;;3.70;99.90;;;;;;5104913;28;20085;-63
2021/01/28 04:39:37;;;;;;;3.20;2.65;;;3.70;99.90;;;;;;5092892;28;20028;-62
2021/01/28 04:42:04;;;;;;;4.28;2.65;;;3.60;99.90;;;;;;5092361;28;20077;-63
2021/01/28 04:44:31;;;;;;;5.20;3.03;;;3.60;99.90;;;;;;5093377;28;20036;-62
2021/01/28 04:46:57;;;;;;;3.17;2.50;;;3.60;99.90;;;;;;5092564;28;20534;-63
2021/01/28 04:49:25;;;;;;;3.40;2.38;;;3.60;99.90;;;;;;5093452;28;20024;-62
2021/01/28 04:52:01;;;;;;;3.50;2.78;;;3.60;99.90;;;;;;5092125;28;20465;-62
2021/01/28 04:54:32;;;;;;;3.80;2.60;;;3.70;99.90;;;;;;5093504;28;20028;-62
2021/01/28 04:57:03;;;;;;;3.33;2.47;;;3.70;99.90;;;;;;5092410;28;20040;-64
2021/01/28 04:59:42;;;;;;;5.35;3.60;;;3.60;99.90;;;;;;5091149;28;20426;-62
2021/01/28 05:02:13;;;;;;;5.45;3.13;;;3.70;99.90;;;;;;5091330;28;20032;-62
2021/01/28 05:04:47;;;;;;;5.63;3.00;;;3.70;99.90;;;;;;5091942;28;20110;-62
2021/01/28 05:07:20;;;;;;;6.28;3.13;;;3.70;99.90;;;;;;5087291;28;20024;-62
2021/01/28 05:10:11;;;;;;;5.75;2.95;;;3.60;99.90;;;;;;5092771;28;20522;-63
2021/01/28 05:12:38;;;;;;;4.18;3.22;;;3.70;99.90;;;;;;5091318;28;20028;-63
2021/01/28 05:15:22;;;;;;;4.30;3.08;;;3.60;99.90;;;;;;5090337;28;20036;-62
2021/01/28 05:18:10;;;;;;;5.05;3.00;;;3.60;99.90;;;;;;5092725;28;20040;-62
2021/01/28 05:20:36;;;;;;;3.80;3.20;;;3.60;99.90;;;;;;5092828;28;20028;-62
2021/01/28 05:23:09;;;;;;;5.25;3.13;;;3.60;99.90;;;;;;5091826;28;20040;-62
2021/01/28 05:25:41;;;;;;;4.45;3.25;;;3.50;99.90;;;;;;5085034;28;20063;-62
2021/01/28 05:28:38;;;;;;;5.05;3.50;;;3.50;99.90;;;;;;5089774;28;20089;-62
2021/01/28 05:31:05;;;;;;;7.05;3.85;;;3.50;99.90;;;;;;5071731;28;20120;-63
2021/01/28 05:33:36;;;;;;;4.75;3.40;;;3.50;99.90;;;;;;5092719;28;20124;-62
2021/01/28 05:36:15;;;;;;;5.35;3.55;;;3.40;99.90;;;;;;5090883;28;20048;-63
2021/01/28 05:38:44;;;;;;;5.70;3.58;;;3.40;99.90;;;;;;5091468;28;20028;-63
2021/01/28 05:41:23;;;;;;;4.47;3.50;;;3.30;99.90;;;;;;5091763;28;20039;-63
2021/01/28 05:43:49;;;;;;;6.28;3.20;;;3.30;99.90;;;;;;5092393;28;20461;-62
2021/01/28 05:46:21;;;;;;;5.43;3.55;;;3.30;99.90;;;;;;5090963;28;20033;-62
2021/01/28 05:49:03;;;;;;;4.88;3.33;;;3.30;99.90;;;;;;5091796;28;20066;-62
2021/01/28 05:51:37;;;;;;;7.00;4.10;;;3.30;99.90;;;;;;5092070;28;20530;-62
2021/01/28 05:54:16;;;;;;;4.95;3.28;;;3.30;99.90;;;;;;5091596;28;20028;-63
2021/01/28 05:57:11;;;;;;;5.93;4.10;;;3.30;99.90;;;;;;5091765;28;20024;-62
2021/01/28 05:59:48;;;;;;;5.32;3.65;;;3.30;99.90;;;;;;5092061;28;20376;-63
2021/01/28 06:02:51;;;;;;;7.45;4.10;;;3.20;99.90;;;;;;5090788;28;20066;-63
2021/01/28 06:05:28;;;;;;;5.95;4.00;;;3.20;99.90;;;;;;5090153;28;20042;-63
2021/01/28 06:08:16;;;;;;;4.93;3.53;;;3.10;99.90;;;;;;5090393;28;20054;-63
2021/01/28 06:11:04;;;;;;;5.88;3.67;;;3.20;99.90;;;;;;5088424;28;20024;-64
2021/01/28 06:14:15;;;;;;;6.43;4.15;;;3.20;99.90;;;;;;5089606;28;20071;-64
2021/01/28 06:17:17;;;;;;;6.32;3.80;;;3.20;99.90;;;;;;5089149;28;20572;-64
2021/01/28 06:19:49;;;;;;;8.63;4.63;;;3.10;99.90;;;;;;5089050;28;20111;-64
2021/01/28 06:22:21;;;;;;;8.70;5.70;;;3.10;99.90;;;;;;5086626;28;20024;-64
2021/01/28 06:25:28;;;;;;;9.82;6.30;;;3.00;99.90;;;;;;5089019;28;20040;-63
2021/01/28 06:28:30;;;;;;;9.27;6.38;;;3.00;99.90;;;;;;5087649;28;20039;-64
2021/01/28 06:31:19;;;;;;;10.45;6.30;;;3.00;99.90;;;;;;5087788;28;20112;-65
2021/01/28 06:34:18;;;;;;;13.57;7.13;;;3.00;99.90;;;;;;5090119;28;20096;-65
2021/01/28 06:37:01;;;;;;;13.65;7.13;;;3.00;99.90;;;;;;5090901;28;20032;-64
2021/01/28 06:39:35;;;;;;;15.00;7.93;;;2.90;99.90;;;;;;5091624;28;20125;-64
2021/01/28 06:42:13;;;;;;;11.02;7.40;;;2.90;99.90;;;;;;5090525;28;20150;-66
2021/01/28 06:45:06;;;;;;;12.80;7.60;;;2.80;99.90;;;;;;5101324;28;20058;-64
2021/01/28 06:47:43;;;;;;;11.60;7.32;;;2.80;99.90;;;;;;5090742;28;20040;-64
2021/01/28 06:50:17;;;;;;;10.65;6.95;;;2.70;99.90;;;;;;5090543;28;20020;-64
2021/01/28 06:53:08;;;;;;;12.02;7.45;;;2.70;99.90;;;;;;5090994;28;20039;-64
2021/01/28 06:55:58;;;;;;;14.00;7.15;;;2.70;99.90;;;;;;5082555;28;20434;-64
2021/01/28 06:58:57;;;;;;;10.77;6.65;;;2.70;99.90;;;;;;5090186;28;20492;-64
2021/01/28 07:01:32;;;;;;;9.07;5.35;;;2.70;99.90;;;;;;5089911;28;20485;-64
2021/01/28 07:04:28;;;;;;;7.45;4.93;;;2.80;99.90;;;;;;5090275;28;20106;-64
2021/01/28 07:07:08;;;;;;;14.57;4.38;;;2.90;99.90;;;;;;5069538;28;20435;-64
2021/01/28 07:09:36;;;;;;;12.07;5.85;;;3.00;99.90;;;;;;5088658;28;20077;-64
2021/01/28 07:12:06;;;;;;;13.52;7.10;;;2.90;99.90;;;;;;5090824;28;20028;-63
2021/01/28 07:14:32;;;;;;;13.32;7.15;;;3.00;99.90;;;;;;5090400;28;20020;-63
2021/01/28 07:17:19;;;;;;;9.18;4.50;;;3.00;99.90;;;;;;5094743;28;20032;-63
2021/01/28 07:20:02;;;;;;;8.25;4.35;;;3.00;99.90;;;;;;5094072;28;20024;-63
2021/01/28 07:22:39;;;;;;;7.95;5.00;;;3.10;99.90;;;;;;5091809;28;20035;-63
2021/01/28 07:25:32;;;;;;;7.53;3.95;;;3.10;99.90;;;;;;5092214;28;20024;-63
2021/01/28 07:28:28;;;;;;;8.07;3.83;;;3.10;99.90;;;;;;5090646;28;20114;-63
2021/01/28 07:31:16;;;;;;;7.88;4.20;;;3.10;99.90;;;;;;5071019;28;20449;-64
2021/01/28 07:33:48;;;;;;;8.38;5.05;;;3.20;99.90;;;;;;5090429;28;20104;-64
2021/01/28 07:36:23;;;;;;;6.60;4.88;;;3.30;99.90;;;;;;5090078;28;20089;-63
2021/01/28 07:38:57;;;;;;;7.45;4.82;;;3.30;99.90;;;;;;5086751;28;20111;-63
2021/01/28 07:41:27;;;;;;;10.38;4.45;;;3.30;99.90;;;;;;5086265;28;20028;-63
2021/01/28 07:44:15;;;;;;;8.77;5.65;;;3.30;99.90;;;;;;5093016;28;20109;-64
2021/01/28 07:46:41;;;;;;;10.95;5.70;;;3.30;99.90;;;;;;5093212;28;20020;-64
2021/01/28 07:49:20;;;;;;;7.45;4.57;;;3.30;99.90;;;;;;5093137;28;20109;-63
2021/01/28 07:51:49;;;;;;;8.30;5.50;;;3.30;99.90;;;;;;5091342;28;20073;-64
2021/01/28 07:54:23;;;;;;;7.63;4.70;;;3.30;99.90;;;;;;5092894;28;20035;-64
2021/01/28 07:56:58;;;;;;;11.45;3.90;;;3.30;99.90;;;;;;5092745;28;20403;-64
2021/01/28 07:59:34;;;;;;;10.85;3.80;;;3.30;99.90;;;;;;5088835;28;20381;-65
2021/01/28 08:02:29;;;;;;;5.65;3.50;;;3.30;99.90;;;;;;5090574;28;20028;-64
2021/01/28 08:05:05;;;;;;;4.75;3.65;;;3.40;99.90;;;;;;5091722;28;20527;-63
2021/01/28 08:07:36;;;;;;;4.93;3.03;;;3.40;99.90;;;;;;5091398;28;20037;-64
2021/01/28 08:10:27;;;;;;;7.45;3.65;;;3.50;99.90;;;;;;5091761;28;20020;-63
2021/01/28 08:12:57;;;;;;;9.20;4.55;;;3.60;99.90;;;;;;5092135;28;20040;-63
2021/01/28 08:15:33;;;;;;;11.65;5.03;;;3.60;99.90;;;;;;5088591;28;20066;-63
2021/01/28 08:18:12;;;;;;;5.63;4.10;;;3.50;99.90;;;;;;5090041;28;20047;-63
2021/01/28 08:20:38;;;;;;;5.63;3.20;;;3.60;99.90;;;;;;5085264;28;20032;-63
2021/01/28 08:23:26;;;;;;;8.98;4.07;;;3.60;99.90;;;;;;5093156;28;20028;-63
2021/01/28 08:25:57;;;;;;;17.05;8.95;;;3.60;99.90;;;;;;5093566;28;20056;-62
2021/01/28 08:28:25;;;;;;;15.25;7.90;;;3.70;99.90;;;;;;5092287;28;20047;-63
2021/01/28 08:31:16;;;;;;;17.60;8.05;;;3.70;99.90;;;;;;5093300;28;20032;-62
2021/01/28 08:33:45;;;;;;;4.30;2.60;;;3.70;99.90;;;;;;5092163;28;20060;-64
2021/01/28 08:36:39;;;;;;;4.10;2.37;;;3.70;99.90;;;;;;5092247;28;20123;-62
2021/01/28 08:39:26;;;;;;;5.18;3.00;;;3.70;99.90;;;;;;5082948;28;20266;-63
2021/01/28 08:42:01;;;;;;;4.63;2.25;;;3.80;99.90;;;;;;5090784;28;20476;-63
2021/01/28 08:44:27;;;;;;;2.70;1.58;;;3.90;99.90;;;;;;5092080;28;20388;-63
2021/01/28 08:47:07;;;;;;;1.63;1.30;;;3.90;99.90;;;;;;5091598;28;20036;-63
2021/01/28 08:49:33;;;;;;;2.58;1.52;;;3.90;99.90;;;;;;5092111;28;20419;-63
2021/01/28 08:52:15;;;;;;;2.10;1.60;;;4.00;99.90;;;;;;5092489;28;20032;-62
2021/01/28 08:54:43;;;;;;;1.90;1.23;;;4.10;99.90;;;;;;5092208;28;20028;-63
2021/01/28 08:57:20;;;;;;;2.15;1.33;;;4.10;99.90;;;;;;5092043;28;20037;-62
2021/01/28 08:59:53;;;;;;;1.60;1.30;;;4.20;99.90;;;;;;5091851;28;20048;-64
2021/01/28 09:02:22;;;;;;;3.75;1.20;;;4.20;99.90;;;;;;5093094;28;20028;-64
2021/01/28 09:04:53;;;;;;;1.50;1.17;;;4.20;99.90;;;;;;5092682;28;20032;-63
2021/01/28 09:07:43;;;;;;;1.35;1.05;;;4.20;99.90;;;;;;5093035;28;20477;-63
2021/01/28 09:10:09;;;;;;;1.58;1.30;;;4.30;99.90;;;;;;5077470;28;20076;-64
2021/01/28 09:12:35;;;;;;;2.00;1.30;;;4.30;99.90;;;;;;5091305;28;20047;-62
2021/01/28 09:15:24;;;;;;;2.05;0.90;;;4.40;99.90;;;;;;5092069;28;20024;-64
2021/01/28 09:17:51;;;;;;;4.28;1.08;;;4.40;99.90;;;;;;5089980;28;20035;-64
2021/01/28 09:20:32;;;;;;;1.38;1.00;;;4.40;99.90;;;;;;5091695;28;20016;-65
2021/01/28 09:23:11;;;;;;;2.25;1.17;;;4.40;99.90;;;;;;5091579;28;20047;-64
2021/01/28 09:25:38;;;;;;;1.60;1.00;;;4.50;99.90;;;;;;5090888;28;20095;-65
2021/01/28 09:28:11;;;;;;;1.30;0.95;;;4.50;99.90;;;;;;5089342;28;20024;-64
2021/01/28 09:30:43;;;;;;;0.80;0.73;;;4.50;99.90;;;;;;5090960;28;20034;-64
2021/01/28 09:33:36;;;;;;;1.50;0.80;;;4.70;99.90;;;;;;5090504;28;20024;-65
2021/01/28 09:36:14;;;;;;;1.02;0.90;;;4.70;99.90;;;;;;5090900;28;20082;-64
2021/01/28 09:38:52;;;;;;;2.72;1.08;;;4.70;99.90;;;;;;5086602;28;20093;-63
2021/01/28 09:41:24;;;;;;;5.50;2.28;;;4.70;99.90;;;;;;5090228;28;20039;-63
2021/01/28 09:43:49;;;;;;;2.45;1.30;;;4.70;99.90;;;;;;5090750;28;20073;-63
2021/01/28 09:46:18;;;;;;;1.45;0.93;;;4.70;99.90;;;;;;5091401;28;20419;-63
2021/01/28 09:48:45;;;;;;;1.35;0.90;;;4.70;99.90;;;;;;5090926;28;20060;-66
2021/01/28 09:51:13;;;;;;;2.97;1.23;;;4.80;99.90;;;;;;5090946;28;20024;-62
2021/01/28 09:54:00;;;;;;;2.05;1.13;;;4.80;99.90;;;;;;5088321;28;20020;-63
2021/01/28 09:56:27;;;;;;;4.22;1.48;;;4.80;99.90;;;;;;5089482;28;20097;-64
2021/01/28 09:58:53;;;;;;;1.50;0.80;;;4.80;99.90;;;;;;5090786;28;20028;-63
2021/01/28 10:01:18;;;;;;;5.88;1.00;;;4.90;99.90;;;;;;5091141;28;20032;-62
2021/01/28 10:03:44;;;;;;;4.13;1.20;;;4.80;99.90;;;;;;5089667;28;20028;-64
2021/01/28 10:06:10;;;;;;;5.72;1.20;;;4.90;99.90;;;;;;5090727;28;20106;-65
2021/01/28 10:08:35;;;;;;;1.13;0.77;;;4.90;99.90;;;;;;5085636;28;20028;-64
2021/01/28 10:11:02;;;;;;;1.45;0.90;;;5.00;99.90;;;;;;5090575;28;20119;-64
2021/01/28 10:13:28;;;;;;;1.40;1.10;;;5.00;99.90;;;;;;5090804;28;20457;-64
2021/01/28 10:15:54;;;;;;;3.42;1.08;;;5.00;99.90;;;;;;5090332;28;20028;-64
2021/01/28 10:18:19;;;;;;;2.60;1.20;;;5.00;99.90;;;;;;5091007;28;20520;-63
2021/01/28 10:20:45;;;;;;;1.60;1.10;;;5.10;99.90;;;;;;5089899;28;20024;-63
2021/01/28 10:23:11;;;;;;;2.05;0.73;;;5.10;99.90;;;;;;5088928;28;20020;-63
2021/01/28 10:25:37;;;;;;;1.92;1.00;;;5.20;99.90;;;;;;5089341;28;20384;-63
2021/01/28 10:28:04;;;;;;;2.22;1.25;;;5.20;99.90;;;;;;5086273;28;20048;-62
2021/01/28 10:30:30;;;;;;;5.28;1.20;;;5.30;99.90;;;;;;5083211;28;20028;-65
2021/01/28 10:32:58;;;;;;;2.47;0.88;;;5.30;99.90;;;;;;5088497;28;20499;-64
2021/01/28 10:35:26;;;;;;;1.38;0.90;;;5.40;99.90;;;;;;5090440;28;20040;-63
2021/01/28 10:37:52;;;;;;;1.45;0.80;;;5.40;99.90;;;;;;5087572;28;20490;-63
2021/01/28 10:40:19;;;;;;;2.55;1.40;;;5.50;99.90;;;;;;5087215;28;20079;-63
2021/01/28 10:42:45;;;;;;;1.75;1.00;;;5.50;99.90;;;;;;5088918;28;20031;-63
2021/01/28 10:45:24;;;;;;;3.72;0.77;;;5.60;99.90;;;;;;5091233;28;20486;-64
2021/01/28 10:47:51;;;;;;;1.63;0.85;;;5.60;99.90;;;;;;5087082;28;20035;-64
2021/01/28 10:50:17;;;;;;;1.90;0.82;;;5.70;99.90;;;;;;5090202;28;20020;-62
2021/01/28 10:52:43;;;;;;;2.13;0.70;;;5.70;99.90;;;;;;5090048;28;20044;-63
2021/01/28 10:55:09;;;;;;;2.67;1.02;;;5.80;99.90;;;;;;5091174;28;20043;-63
2021/01/28 10:57:35;;;;;;;0.95;0.63;;;5.90;99.90;;;;;;5086705;28;20081;-64
2021/01/28 11:00:03;;;;;;;2.67;0.85;;;6.00;99.90;;;;;;5089667;28;20028;-63
2021/01/28 11:02:28;;;;;;;1.50;1.00;;;6.10;99.90;;;;;;5090745;28;20059;-65
2021/01/28 11:04:55;;;;;;;5.68;1.17;;;6.10;99.90;;;;;;5088199;28;20436;-65
2021/01/28 11:07:21;;;;;;;2.60;1.52;;;6.30;99.90;;;;;;5091065;28;20024;-62
2021/01/28 11:09:47;;;;;;;0.70;0.40;;;6.30;99.90;;;;;;5084820;28;20047;-62
2021/01/28 11:12:12;;;;;;;3.10;0.98;;;6.30;99.90;;;;;;5089908;28;20095;-63
2021/01/28 11:14:38;;;;;;;0.80;0.70;;;6.40;99.90;;;;;;5089816;28;20074;-63
2021/01/28 11:17:04;;;;;;;1.40;0.80;;;6.50;99.90;;;;;;5089813;28;20074;-62
2021/01/28 11:19:29;;;;;;;1.67;1.10;;;6.50;99.90;;;;;;5090322;28;20500;-64
2021/01/28 11:21:55;;;;;;;3.80;0.90;;;6.50;99.90;;;;;;5090254;28;20103;-62
2021/01/28 11:24:21;;;;;;;3.22;1.23;;;6.50;99.90;;;;;;5090807;28;20059;-63
2021/01/28 11:26:46;;;;;;;1.38;0.90;;;6.40;99.90;;;;;;5090402;28;20032;-63
2021/01/28 11:29:12;;;;;;;2.45;1.27;;;6.40;99.90;;;;;;5090814;28;20024;-63
2021/01/28 11:31:38;;;;;;;3.65;1.10;;;6.30;99.90;;;;;;5090670;28;20039;-63
2021/01/28 11:34:05;;;;;;;3.03;0.82;;;6.30;99.90;;;;;;5091214;28;20031;-62
2021/01/28 11:36:31;;;;;;;3.28;1.00;;;6.40;99.90;;;;;;5090686;28;20147;-64
2021/01/28 11:38:57;;;;;;;2.58;0.65;;;6.50;99.90;;;;;;5089190;28;20059;-63
2021/01/28 11:41:23;;;;;;;2.55;0.60;;;6.60;99.90;;;;;;5089008;28;20051;-63
2021/01/28 11:43:49;;;;;;;1.55;0.85;;;6.70;99.90;;;;;;5088838;28;20080;-63
2021/01/28 11:46:15;;;;;;;2.25;0.40;;;6.90;99.90;;;;;;5090960;28;20533;-63
2021/01/28 11:48:40;;;;;;;2.33;0.60;;;7.00;99.90;;;;;;5089129;28;20024;-62
2021/01/28 11:51:06;;;;;;;2.33;0.50;;;7.10;99.90;;;;;;5090773;28;20031;-63
2021/01/28 11:53:32;;;;;;;1.33;0.63;;;7.20;99.90;;;;;;5090349;28;20031;-65
2021/01/28 11:55:58;;;;;;;1.27;0.65;;;7.30;99.90;;;;;;5090679;28;20385;-63
2021/01/28 11:58:23;;;;;;;1.02;0.77;;;7.40;99.90;;;;;;5085475;28;20476;-64
2021/01/28 12:00:49;;;;;;;0.68;0.52;;;7.50;99.90;;;;;;5086471;28;20028;-62
2021/01/28 12:03:15;;;;;;;1.10;0.47;;;7.50;99.90;;;;;;5092469;28;20040;-64
2021/01/28 12:05:41;;;;;;;0.47;0.38;;;7.50;99.90;;;;;;5093876;28;20082;-62
2021/01/28 12:08:06;;;;;;;0.55;0.52;;;7.50;99.90;;;;;;5092751;28;20425;-62
2021/01/28 12:10:33;;;;;;;1.45;0.80;;;7.70;99.90;;;;;;5092427;28;20103;-63
2021/01/28 12:12:59;;;;;;;3.03;0.85;;;7.80;99.90;;;;;;5093227;28;20020;-65
2021/01/28 12:15:25;;;;;;;3.72;1.35;;;7.90;99.90;;;;;;5094036;28;20074;-62
2021/01/28 12:17:52;;;;;;;5.18;1.73;;;8.00;99.90;;;;;;5093002;28;20032;-61
2021/01/28 12:20:21;;;;;;;1.20;0.65;;;8.10;99.90;;;;;;5076818;28;20032;-62
2021/01/28 12:22:47;;;;;;;1.00;0.60;;;8.10;99.90;;;;;;5073207;28;20021;-63
2021/01/28 12:25:13;;;;;;;3.00;0.90;;;8.10;99.90;;;;;;5082655;28;20043;-62
2021/01/28 12:27:38;;;;;;;1.27;0.65;;;8.20;99.90;;;;;;5092137;28;20046;-62
2021/01/28 12:30:07;;;;;;;1.80;0.68;;;8.20;99.90;;;;;;5092794;28;20078;-62
2021/01/28 12:32:35;;;;;;;2.47;0.95;;;8.30;99.90;;;;;;5093111;28;20046;-64
2021/01/28 12:35:00;;;;;;;1.45;0.88;;;8.40;99.90;;;;;;5093529;28;20063;-63
2021/01/28 12:37:26;;;;;;;0.95;0.65;;;8.60;99.90;;;;;;5093539;28;20035;-62
2021/01/28 12:39:52;;;;;;;1.70;0.60;;;8.70;99.90;;;;;;5084839;28;20024;-62
2021/01/28 12:42:17;;;;;;;0.77;0.70;;;8.80;99.90;;;;;;5093373;28;20027;-62
2021/01/28 12:44:43;;;;;;;1.80;0.73;;;8.80;99.90;;;;;;5092992;28;20099;-63
2021/01/28 12:47:09;;;;;;;3.08;0.32;;;8.80;99.90;;;;;;5094066;28;20020;-63
2021/01/28 12:49:35;;;;;;;0.38;0.30;;;8.70;99.90;;;;;;5092497;28;20035;-64
2021/01/28 12:52:00;;;;;;;2.13;0.90;;;8.70;99.90;;;;;;5093149;28;20028;-62
2021/01/28 12:54:26;;;;;;;1.05;0.50;;;8.70;99.90;;;;;;5093218;28;20016;-62
2021/01/28 12:56:52;;;;;;;1.27;0.90;;;8.70;99.90;;;;;;5087938;28;20047;-62
2021/01/28 12:59:17;;;;;;;0.32;0.32;;;8.70;99.90;;;;;;5092760;28;20045;-62
2021/01/28 13:01:43;;;;;;;1.95;0.60;;;8.60;99.90;;;;;;5092639;28;20028;-63
2021/01/28 13:04:09;;;;;;;0.40;0.40;;;8.70;99.90;;;;;;5092777;28;20490;-62
2021/01/28 13:06:34;;;;;;;1.00;0.40;;;8.70;99.90;;;;;;5093053;28;20031;-64
2021/01/28 13:09:00;;;;;;;1.38;0.75;;;8.70;99.90;;;;;;5090855;28;20380;-62
2021/01/28 13:11:26;;;;;;;1.75;0.63;;;8.70;99.90;;;;;;5092560;28;20035;-62
2021/01/28 13:13:52;;;;;;;1.45;0.63;;;8.60;99.90;;;;;;5090578;28;20024;-61
2021/01/28 13:16:18;;;;;;;1.60;0.50;;;8.60;99.90;;;;;;5092418;28;20119;-62
2021/01/28 13:18:45;;;;;;;5.25;0.65;;;8.60;99.90;;;;;;5090755;28;20044;-61